Time;durP1;ratioP1;P1;durP2;ratioP2;P2;SDS_P1;SDS_P2;PMS_P1;PMS_P2;Temp;Humidity;BMP_temperature;BMP_pressure;BME280_temperature;BME280_humidity;BME280_pressure;Samples;Min_cycle;Max_cycle;Signal;HPM_P1;HPM_P2
2024/01/28 00:00:11;;;;;;;4.57;4.17;;;22.60;52.70;;;;;;5044484;28;20455;-70
2024/01/28 00:02:40;;;;;;;6.90;4.90;;;22.60;52.70;;;;;;5048011;28;20930;-70
2024/01/28 00:05:09;;;;;;;5.60;5.10;;;22.60;52.70;;;;;;5055650;28;20497;-70
2024/01/28 00:07:37;;;;;;;5.30;4.80;;;22.50;52.70;;;;;;5048371;28;20980;-70
2024/01/28 00:10:08;;;;;;;4.97;4.60;;;22.60;52.70;;;;;;5058593;28;20499;-71
2024/01/28 00:12:37;;;;;;;5.77;5.17;;;22.50;52.70;;;;;;5052435;28;20552;-70
2024/01/28 00:15:07;;;;;;;4.50;4.10;;;22.50;52.70;;;;;;5051133;28;20443;-70
2024/01/28 00:17:35;;;;;;;5.10;4.70;;;22.50;52.70;;;;;;5050347;28;20486;-70
2024/01/28 00:20:05;;;;;;;5.20;4.70;;;22.50;52.70;;;;;;5047097;28;20458;-72
2024/01/28 00:22:34;;;;;;;5.30;4.90;;;22.50;52.70;;;;;;5046571;28;20981;-69
2024/01/28 00:25:02;;;;;;;4.93;4.53;;;22.50;52.70;;;;;;5047752;28;20505;-69
2024/01/28 00:27:32;;;;;;;5.07;4.67;;;22.50;52.70;;;;;;5055541;28;20464;-71
2024/01/28 00:30:01;;;;;;;4.20;3.80;;;22.50;52.70;;;;;;5072148;28;20454;-69
2024/01/28 00:32:29;;;;;;;5.50;5.00;;;22.50;52.70;;;;;;5049244;28;20467;-72
2024/01/28 00:34:57;;;;;;;4.40;4.10;;;22.50;52.70;;;;;;5051508;28;20458;-70
2024/01/28 00:37:26;;;;;;;5.00;4.60;;;22.50;52.70;;;;;;5051183;28;21144;-69
2024/01/28 00:39:54;;;;;;;5.63;4.30;;;22.50;52.80;;;;;;5061285;28;20557;-72
2024/01/28 00:42:23;;;;;;;4.70;4.30;;;22.50;52.80;;;;;;5040887;28;20549;-69
2024/01/28 00:44:53;;;;;;;5.37;4.93;;;22.40;52.80;;;;;;5035826;28;20805;-71
2024/01/28 00:47:21;;;;;;;5.53;5.10;;;22.40;52.80;;;;;;5041381;28;20485;-70
2024/01/28 00:49:50;;;;;;;4.77;4.30;;;22.40;52.80;;;;;;5072500;28;20834;-69
2024/01/28 00:52:19;;;;;;;6.03;5.53;;;22.40;52.80;;;;;;5044866;28;20972;-69
2024/01/28 00:54:47;;;;;;;5.27;4.87;;;22.40;52.80;;;;;;5048613;28;20861;-69
2024/01/28 00:57:15;;;;;;;4.47;4.17;;;22.40;52.80;;;;;;5042109;28;20468;-69
2024/01/28 00:59:44;;;;;;;5.43;4.27;;;22.40;52.80;;;;;;5047503;28;20470;-71
2024/01/28 01:02:13;;;;;;;4.50;4.20;;;22.40;52.80;;;;;;5044999;28;20478;-69
2024/01/28 01:04:42;;;;;;;4.83;4.47;;;22.30;52.80;;;;;;5052754;28;20438;-70
2024/01/28 01:07:10;;;;;;;4.33;4.03;;;22.30;52.90;;;;;;5052554;28;21080;-69
2024/01/28 01:09:39;;;;;;;4.80;4.37;;;22.30;52.80;;;;;;5051105;28;20602;-70
2024/01/28 01:12:07;;;;;;;4.90;4.53;;;22.30;52.90;;;;;;5050843;28;20565;-69
2024/01/28 01:14:37;;;;;;;4.50;4.20;;;22.30;52.90;;;;;;5051952;28;20970;-69
2024/01/28 01:17:06;;;;;;;4.60;4.30;;;22.30;52.90;;;;;;5045500;28;20541;-70
2024/01/28 01:19:36;;;;;;;4.90;4.50;;;22.20;52.90;;;;;;5056805;28;21233;-72
2024/01/28 01:22:05;;;;;;;4.13;3.83;;;22.20;52.90;;;;;;5049796;28;20470;-72
2024/01/28 01:24:33;;;;;;;5.30;4.80;;;22.20;52.90;;;;;;5044840;28;20557;-69
2024/01/28 01:27:01;;;;;;;4.57;4.17;;;22.20;52.90;;;;;;5043097;28;20462;-70
2024/01/28 01:29:30;;;;;;;4.73;4.43;;;22.20;52.90;;;;;;5054602;28;20475;-69
2024/01/28 01:31:58;;;;;;;5.33;4.90;;;22.20;52.90;;;;;;5044638;28;20469;-69
2024/01/28 01:34:27;;;;;;;4.33;4.03;;;22.20;53.00;;;;;;5051677;28;20472;-70
2024/01/28 01:36:57;;;;;;;4.40;4.00;;;22.20;53.00;;;;;;5051287;28;20433;-69
2024/01/28 01:39:25;;;;;;;4.20;3.90;;;22.20;53.00;;;;;;5046451;28;20560;-70
2024/01/28 01:41:56;;;;;;;4.17;3.80;;;22.10;53.00;;;;;;5048472;28;20972;-70
2024/01/28 01:44:26;;;;;;;4.97;4.63;;;22.10;53.00;;;;;;5041907;28;20494;-72
2024/01/28 01:46:54;;;;;;;4.37;3.97;;;22.10;53.00;;;;;;5040724;28;20465;-70
2024/01/28 01:49:23;;;;;;;4.63;4.23;;;22.10;53.00;;;;;;5057073;28;20842;-71
2024/01/28 01:51:51;;;;;;;4.90;4.30;;;22.10;53.00;;;;;;5045622;28;20469;-73
2024/01/28 01:54:21;;;;;;;4.70;4.30;;;22.10;53.00;;;;;;5042538;28;20510;-69
2024/01/28 01:56:50;;;;;;;4.27;4.00;;;22.10;53.00;;;;;;5067563;28;20849;-68
2024/01/28 01:59:20;;;;;;;4.63;4.23;;;22.10;53.00;;;;;;5052801;28;20453;-69
2024/01/28 02:01:49;;;;;;;4.43;3.93;;;22.00;53.00;;;;;;5044048;28;20459;-71
2024/01/28 02:04:17;;;;;;;4.53;4.10;;;22.00;53.10;;;;;;5048509;28;20465;-69
2024/01/28 02:06:45;;;;;;;4.23;3.87;;;22.00;53.10;;;;;;5042318;28;20489;-71
2024/01/28 02:09:14;;;;;;;4.70;4.40;;;22.00;53.10;;;;;;5051044;28;20561;-69
2024/01/28 02:11:45;;;;;;;4.27;3.87;;;22.00;53.10;;;;;;5050129;28;20967;-69
2024/01/28 02:14:21;;;;;;;5.27;4.80;;;22.00;53.10;;;;;;5050705;28;20445;-69
2024/01/28 02:16:50;;;;;;;4.40;4.10;;;22.00;53.10;;;;;;5045168;28;20446;-69
2024/01/28 02:19:19;;;;;;;4.50;4.10;;;22.00;53.10;;;;;;5049864;28;20866;-70
2024/01/28 02:21:48;;;;;;;4.20;3.90;;;22.00;53.10;;;;;;5042431;28;20993;-69
2024/01/28 02:24:17;;;;;;;4.63;4.33;;;21.90;53.10;;;;;;5051223;28;20530;-69
2024/01/28 02:26:47;;;;;;;4.67;4.20;;;21.90;53.10;;;;;;5050802;28;20448;-69
2024/01/28 02:29:15;;;;;;;4.33;4.03;;;21.90;53.10;;;;;;5059449;28;20488;-69
2024/01/28 02:31:46;;;;;;;4.40;4.10;;;21.90;53.10;;;;;;5050929;28;20463;-70
2024/01/28 02:34:14;;;;;;;4.13;3.70;;;21.90;53.10;;;;;;5042412;28;20953;-71
2024/01/28 02:36:42;;;;;;;4.50;4.10;;;21.90;53.10;;;;;;5036465;28;20845;-69
2024/01/28 02:39:11;;;;;;;4.30;4.00;;;21.90;53.10;;;;;;5063181;28;20501;-69
2024/01/28 02:41:40;;;;;;;4.07;3.77;;;21.80;53.10;;;;;;5044125;28;20542;-71
2024/01/28 02:44:09;;;;;;;3.90;3.60;;;21.80;53.10;;;;;;5043619;28;20486;-69
2024/01/28 02:46:37;;;;;;;4.17;3.77;;;21.80;53.10;;;;;;5047741;28;20467;-69
2024/01/28 02:49:06;;;;;;;4.33;3.93;;;21.80;53.10;;;;;;5041787;28;20512;-69
2024/01/28 02:51:34;;;;;;;4.30;3.90;;;21.80;53.10;;;;;;5047962;28;20947;-69
2024/01/28 02:54:03;;;;;;;4.60;4.20;;;21.80;53.10;;;;;;5039312;28;20460;-69
2024/01/28 02:56:31;;;;;;;3.70;3.40;;;21.80;53.20;;;;;;5047047;28;20457;-71
2024/01/28 02:59:01;;;;;;;3.80;3.50;;;21.80;53.20;;;;;;5060723;28;20438;-69
2024/01/28 03:01:30;;;;;;;3.77;3.47;;;21.80;53.20;;;;;;5043628;28;20803;-69
2024/01/28 03:03:58;;;;;;;4.43;3.87;;;21.70;53.10;;;;;;5043548;28;20448;-71
2024/01/28 03:06:28;;;;;;;4.40;4.10;;;21.70;53.20;;;;;;5041320;28;20966;-69
2024/01/28 03:08:57;;;;;;;4.23;3.67;;;21.80;53.10;;;;;;5057675;28;20447;-70
2024/01/28 03:11:25;;;;;;;3.93;3.63;;;21.70;53.10;;;;;;5070042;28;20996;-71
2024/01/28 03:13:53;;;;;;;3.93;3.63;;;21.70;53.10;;;;;;5062538;28;20448;-69
2024/01/28 03:16:24;;;;;;;4.37;4.03;;;21.70;53.10;;;;;;5045613;28;20511;-69
2024/01/28 03:18:52;;;;;;;3.87;3.57;;;21.70;53.10;;;;;;5050492;28;20503;-69
2024/01/28 03:21:21;;;;;;;3.90;3.60;;;21.70;53.10;;;;;;5048472;28;20550;-70
2024/01/28 03:23:49;;;;;;;4.30;3.90;;;21.70;53.10;;;;;;5046730;28;20543;-70
2024/01/28 03:26:19;;;;;;;4.27;3.90;;;21.70;53.10;;;;;;5053644;28;20447;-70
2024/01/28 03:28:47;;;;;;;3.93;3.63;;;21.70;53.10;;;;;;5063410;28;20433;-72
2024/01/28 03:31:17;;;;;;;3.27;3.00;;;21.70;53.10;;;;;;5047419;28;20477;-70
2024/01/28 03:33:47;;;;;;;3.57;3.27;;;21.70;53.10;;;;;;5053890;28;20438;-71
2024/01/28 03:36:15;;;;;;;4.00;3.70;;;21.70;53.10;;;;;;5054117;28;20468;-70
2024/01/28 03:38:44;;;;;;;4.43;4.13;;;21.70;53.10;;;;;;5051468;28;20818;-69
2024/01/28 03:41:14;;;;;;;4.23;3.90;;;21.70;53.10;;;;;;5053773;28;20508;-69
2024/01/28 03:43:45;;;;;;;3.97;3.67;;;21.70;53.20;;;;;;5052607;28;20529;-69
2024/01/28 03:46:13;;;;;;;3.73;3.40;;;21.70;53.20;;;;;;5048418;28;20461;-74
2024/01/28 03:48:41;;;;;;;3.80;3.50;;;21.60;53.20;;;;;;5056042;28;20457;-72
2024/01/28 03:51:13;;;;;;;4.40;4.00;;;21.60;53.20;;;;;;5039492;28;20481;-71
2024/01/28 03:53:41;;;;;;;3.60;3.30;;;21.60;53.20;;;;;;5051594;28;20965;-69
2024/01/28 03:56:09;;;;;;;3.67;3.47;;;21.60;53.20;;;;;;5054693;28;20460;-69
2024/01/28 03:58:38;;;;;;;3.33;3.00;;;21.60;53.20;;;;;;5061920;28;20452;-69
2024/01/28 04:01:06;;;;;;;4.00;3.63;;;21.60;53.20;;;;;;5040743;28;20944;-72
2024/01/28 04:03:35;;;;;;;3.63;3.33;;;21.60;53.30;;;;;;5034188;28;20788;-71
2024/01/28 04:06:03;;;;;;;4.53;3.57;;;21.50;53.30;;;;;;5043231;28;20455;-70
2024/01/28 04:08:33;;;;;;;3.50;3.20;;;21.50;53.30;;;;;;5049677;28;20551;-69
2024/01/28 04:11:02;;;;;;;3.87;3.57;;;21.50;53.30;;;;;;5048814;28;20469;-69
2024/01/28 04:13:30;;;;;;;3.57;3.27;;;21.50;53.30;;;;;;5040759;28;20546;-70
2024/01/28 04:15:59;;;;;;;3.70;3.50;;;21.50;53.30;;;;;;5048914;28;20474;-70
2024/01/28 04:18:27;;;;;;;3.77;3.47;;;21.50;53.40;;;;;;5052500;28;20824;-70
2024/01/28 04:20:55;;;;;;;3.20;3.00;;;21.50;53.40;;;;;;5053675;28;20464;-71
2024/01/28 04:23:24;;;;;;;4.20;3.90;;;21.50;53.50;;;;;;5041359;28;20498;-70
2024/01/28 04:25:53;;;;;;;3.20;3.00;;;21.50;53.50;;;;;;5050943;28;20467;-72
2024/01/28 04:28:23;;;;;;;3.33;3.13;;;21.50;53.50;;;;;;5037365;28;20484;-70
2024/01/28 04:30:52;;;;;;;3.60;3.40;;;21.50;53.50;;;;;;5050567;28;20483;-70
2024/01/28 04:33:20;;;;;;;3.93;3.53;;;21.50;53.50;;;;;;5051710;28;20536;-72
2024/01/28 04:35:48;;;;;;;4.30;3.40;;;21.60;53.50;;;;;;5052355;28;20800;-70
2024/01/28 04:38:17;;;;;;;3.77;3.47;;;21.60;53.40;;;;;;5059618;28;20906;-71
2024/01/28 04:40:45;;;;;;;3.50;3.20;;;21.70;53.40;;;;;;5071963;28;20448;-71
2024/01/28 04:43:14;;;;;;;3.37;3.07;;;21.70;53.30;;;;;;5071951;28;20428;-70
2024/01/28 04:45:43;;;;;;;3.47;3.27;;;21.70;53.30;;;;;;5052821;28;20457;-70
2024/01/28 04:48:11;;;;;;;3.07;2.87;;;21.80;53.30;;;;;;5056203;28;20532;-71
2024/01/28 04:50:40;;;;;;;3.23;2.83;;;21.80;53.20;;;;;;5054022;28;20881;-71
2024/01/28 04:53:08;;;;;;;3.47;3.27;;;21.90;53.20;;;;;;5044709;28;20470;-72
2024/01/28 04:55:36;;;;;;;3.77;3.47;;;22.00;53.10;;;;;;5039868;28;20464;-72
2024/01/28 04:58:05;;;;;;;3.40;3.10;;;22.00;53.10;;;;;;5052362;28;20530;-74
2024/01/28 05:00:34;;;;;;;3.53;3.23;;;22.10;53.00;;;;;;5052256;28;20486;-71
2024/01/28 05:03:03;;;;;;;3.30;3.00;;;22.10;53.00;;;;;;5037658;28;20524;-72
2024/01/28 05:05:31;;;;;;;3.90;3.60;;;22.20;52.90;;;;;;5039932;28;20858;-72
2024/01/28 05:07:59;;;;;;;3.23;3.00;;;22.20;52.80;;;;;;5055980;28;20871;-71
2024/01/28 05:10:28;;;;;;;3.33;3.13;;;22.30;52.80;;;;;;5067326;28;20980;-71
2024/01/28 05:12:56;;;;;;;3.40;3.20;;;22.40;52.70;;;;;;5045482;28;20480;-72
2024/01/28 05:15:26;;;;;;;3.17;2.97;;;22.40;52.60;;;;;;5045400;28;20553;-71
2024/01/28 05:17:56;;;;;;;2.60;2.40;;;22.50;52.50;;;;;;5050921;28;20873;-71
2024/01/28 05:20:24;;;;;;;3.67;3.33;;;22.50;52.40;;;;;;5046009;28;20456;-71
2024/01/28 05:22:52;;;;;;;3.03;2.83;;;22.50;52.30;;;;;;5039776;28;20490;-70
2024/01/28 05:25:20;;;;;;;3.40;3.17;;;22.50;52.20;;;;;;5051728;28;20443;-72
2024/01/28 05:27:49;;;;;;;3.03;2.83;;;22.50;52.20;;;;;;5053612;28;20442;-70
2024/01/28 05:30:17;;;;;;;3.40;2.80;;;22.50;52.20;;;;;;5071197;28;20466;-70
2024/01/28 05:32:46;;;;;;;3.00;2.80;;;22.50;52.20;;;;;;5047550;28;20519;-70
2024/01/28 05:35:15;;;;;;;3.47;3.17;;;22.40;52.20;;;;;;5052000;28;20438;-70
2024/01/28 05:37:44;;;;;;;2.70;2.50;;;22.40;52.20;;;;;;5045175;28;20462;-70
2024/01/28 05:40:13;;;;;;;3.17;2.87;;;22.40;52.20;;;;;;5055275;28;21064;-72
2024/01/28 05:42:42;;;;;;;2.97;2.77;;;22.30;52.30;;;;;;5045776;28;20462;-73
2024/01/28 05:45:10;;;;;;;3.40;3.17;;;22.30;52.30;;;;;;5045147;28;20465;-70
2024/01/28 05:47:38;;;;;;;3.10;2.80;;;22.20;52.40;;;;;;5043672;28;20462;-70
2024/01/28 05:50:07;;;;;;;2.80;2.60;;;22.20;52.40;;;;;;5063770;28;20459;-70
2024/01/28 05:52:37;;;;;;;3.10;2.90;;;22.20;52.50;;;;;;5040575;28;20473;-70
2024/01/28 05:55:05;;;;;;;2.93;2.73;;;22.10;52.50;;;;;;5041356;28;20513;-71
2024/01/28 05:57:34;;;;;;;3.30;3.00;;;22.10;52.50;;;;;;5050869;28;20940;-70
2024/01/28 06:00:03;;;;;;;3.73;3.43;;;22.10;52.60;;;;;;5046755;28;20447;-71
2024/01/28 06:02:36;;;;;;;3.30;3.10;;;22.00;52.70;;;;;;5054591;28;20464;-70
2024/01/28 06:05:04;;;;;;;3.40;3.10;;;22.00;52.70;;;;;;5066199;28;20517;-70
2024/01/28 06:07:33;;;;;;;3.70;3.40;;;22.00;52.80;;;;;;5043008;28;20944;-70
2024/01/28 06:10:02;;;;;;;3.50;3.20;;;22.00;52.90;;;;;;5070389;28;20772;-71
2024/01/28 06:12:31;;;;;;;3.30;3.00;;;22.00;52.90;;;;;;5051217;28;20481;-71
2024/01/28 06:15:04;;;;;;;3.43;2.97;;;22.00;53.00;;;;;;5053156;28;20473;-73
2024/01/28 06:17:33;;;;;;;3.23;3.03;;;22.00;53.10;;;;;;5047936;28;21009;-74
2024/01/28 06:20:01;;;;;;;3.20;3.00;;;22.00;53.10;;;;;;5035859;28;20516;-70
2024/01/28 06:22:29;;;;;;;2.90;2.70;;;22.00;53.10;;;;;;5042516;28;20499;-70
2024/01/28 06:24:58;;;;;;;3.40;3.10;;;22.10;53.10;;;;;;5051000;28;20437;-72
2024/01/28 06:27:29;;;;;;;3.23;3.00;;;22.10;53.10;;;;;;5065971;28;20470;-73
2024/01/28 06:29:57;;;;;;;2.80;2.60;;;22.20;53.10;;;;;;5044098;28;20875;-70
2024/01/28 06:32:26;;;;;;;3.13;2.93;;;22.20;53.10;;;;;;5045316;28;20514;-70
2024/01/28 06:34:54;;;;;;;2.47;2.37;;;22.20;53.10;;;;;;5050885;28;20447;-70
2024/01/28 06:37:22;;;;;;;2.67;2.47;;;22.20;53.00;;;;;;5044266;28;20497;-72
2024/01/28 06:39:51;;;;;;;3.10;2.90;;;22.30;53.00;;;;;;5054884;28;20797;-72
2024/01/28 06:42:20;;;;;;;3.30;3.00;;;22.30;52.90;;;;;;5037081;28;20458;-70
2024/01/28 06:44:50;;;;;;;2.70;2.50;;;22.30;52.90;;;;;;5049851;28;20438;-70
2024/01/28 06:47:18;;;;;;;3.00;2.80;;;22.30;52.90;;;;;;5041900;28;20469;-70
2024/01/28 06:49:50;;;;;;;2.70;2.50;;;22.20;52.90;;;;;;5067767;28;20520;-71
2024/01/28 06:52:18;;;;;;;2.80;2.60;;;22.20;52.90;;;;;;5051177;28;20468;-70
2024/01/28 06:54:47;;;;;;;3.10;2.90;;;22.20;53.00;;;;;;5049438;28;20492;-71
2024/01/28 06:57:15;;;;;;;3.03;2.83;;;22.20;53.00;;;;;;5050573;28;21002;-71
2024/01/28 06:59:44;;;;;;;2.63;2.43;;;22.20;53.00;;;;;;5059565;28;20790;-74
2024/01/28 07:02:15;;;;;;;3.10;2.80;;;22.10;53.00;;;;;;5046495;28;20465;-70
2024/01/28 07:04:43;;;;;;;3.43;3.07;;;22.10;53.00;;;;;;5047758;28;20457;-71
2024/01/28 07:07:12;;;;;;;3.30;3.00;;;22.10;53.00;;;;;;5046169;28;20509;-71
2024/01/28 07:09:40;;;;;;;3.20;2.60;;;22.10;53.10;;;;;;5055391;28;20460;-72
2024/01/28 07:12:09;;;;;;;3.00;2.80;;;22.00;53.10;;;;;;5042989;28;20942;-70
2024/01/28 07:14:37;;;;;;;2.83;2.63;;;22.00;53.10;;;;;;5048027;28;20459;-75
2024/01/28 07:17:07;;;;;;;3.20;2.90;;;22.00;53.10;;;;;;5044677;28;20526;-73
2024/01/28 07:19:37;;;;;;;2.60;2.40;;;22.00;53.10;;;;;;5053753;28;20804;-71
2024/01/28 07:22:05;;;;;;;3.30;2.97;;;22.00;53.10;;;;;;5038957;28;20450;-71
2024/01/28 07:24:33;;;;;;;3.03;2.83;;;22.00;53.10;;;;;;5038640;28;20491;-74
2024/01/28 07:27:02;;;;;;;3.47;3.17;;;22.00;53.10;;;;;;5040290;28;20462;-72
2024/01/28 07:29:30;;;;;;;2.90;2.70;;;22.00;53.10;;;;;;5043091;28;20452;-72
2024/01/28 07:31:58;;;;;;;4.20;3.27;;;22.00;53.10;;;;;;5036605;28;20484;-71
2024/01/28 07:34:27;;;;;;;3.30;2.67;;;22.00;53.00;;;;;;5041485;28;20985;-73
2024/01/28 07:36:58;;;;;;;3.33;3.10;;;22.10;53.00;;;;;;5046884;28;20461;-71
2024/01/28 07:39:27;;;;;;;2.93;2.53;;;22.10;52.90;;;;;;5038668;28;20515;-71
2024/01/28 07:41:55;;;;;;;3.13;2.93;;;22.20;52.90;;;;;;5045443;28;20489;-75
2024/01/28 07:44:23;;;;;;;3.70;3.40;;;22.20;52.80;;;;;;5044573;28;20460;-72
2024/01/28 07:46:52;;;;;;;2.90;2.70;;;22.30;52.70;;;;;;5046094;28;20489;-74
2024/01/28 07:49:21;;;;;;;3.53;3.23;;;22.30;52.70;;;;;;5041859;28;20572;-71
2024/01/28 07:51:49;;;;;;;4.13;2.70;;;22.30;52.60;;;;;;5045918;28;20471;-73
2024/01/28 07:54:20;;;;;;;2.93;2.70;;;22.30;52.60;;;;;;5038804;28;20825;-72
2024/01/28 07:56:48;;;;;;;3.87;3.57;;;22.30;52.60;;;;;;5036756;28;20461;-75
2024/01/28 07:59:17;;;;;;;3.30;3.07;;;22.30;52.60;;;;;;5049305;28;20464;-74
2024/01/28 08:01:45;;;;;;;3.13;2.93;;;22.30;52.70;;;;;;5048894;28;20466;-73
2024/01/28 08:04:13;;;;;;;4.10;3.73;;;22.30;52.70;;;;;;5039399;28;20472;-73
2024/01/28 08:06:42;;;;;;;4.93;3.20;;;22.20;52.70;;;;;;5045816;28;20539;-73
2024/01/28 08:09:10;;;;;;;3.47;3.17;;;22.20;52.80;;;;;;5045573;28;20521;-71
2024/01/28 08:11:40;;;;;;;3.07;2.87;;;22.20;52.80;;;;;;5042996;28;20455;-72
2024/01/28 08:14:09;;;;;;;3.73;3.50;;;22.20;52.80;;;;;;5044010;28;20484;-71
2024/01/28 08:16:37;;;;;;;2.90;2.57;;;22.10;52.90;;;;;;5040910;28;20467;-72
2024/01/28 08:19:06;;;;;;;3.60;3.30;;;22.10;52.90;;;;;;5050152;28;20457;-71
2024/01/28 08:21:34;;;;;;;3.50;3.30;;;22.10;52.90;;;;;;5045243;28;20453;-72
2024/01/28 08:24:02;;;;;;;3.90;3.60;;;22.00;53.00;;;;;;5048386;28;20584;-71
2024/01/28 08:26:31;;;;;;;3.87;3.57;;;22.00;53.00;;;;;;5045859;28;20461;-74
2024/01/28 08:29:00;;;;;;;4.00;3.60;;;22.00;53.00;;;;;;5045892;28;20836;-70
2024/01/28 08:31:30;;;;;;;3.60;3.10;;;22.00;53.10;;;;;;5042259;28;20702;-71
2024/01/28 08:34:00;;;;;;;4.27;3.97;;;22.00;53.10;;;;;;5045239;28;20482;-73
2024/01/28 08:36:29;;;;;;;4.43;3.80;;;22.00;53.10;;;;;;5047484;28;20892;-71
2024/01/28 08:38:57;;;;;;;4.47;4.07;;;22.10;53.10;;;;;;5042561;28;20461;-70
2024/01/28 08:41:25;;;;;;;4.00;3.60;;;22.10;53.00;;;;;;5045949;28;20833;-71
2024/01/28 08:43:54;;;;;;;3.63;3.33;;;22.10;53.00;;;;;;5044841;28;21232;-70
2024/01/28 08:46:24;;;;;;;3.53;3.23;;;22.20;52.90;;;;;;5047903;28;20465;-74
2024/01/28 08:48:52;;;;;;;4.00;3.70;;;22.20;52.80;;;;;;5047413;28;20473;-72
2024/01/28 08:51:21;;;;;;;4.53;4.13;;;22.30;52.70;;;;;;5047238;28;20472;-71
2024/01/28 08:53:49;;;;;;;3.53;3.23;;;22.30;52.60;;;;;;5040600;28;20497;-71
2024/01/28 08:56:19;;;;;;;4.20;3.90;;;22.30;52.50;;;;;;5047785;28;20466;-71
2024/01/28 08:58:48;;;;;;;3.57;3.33;;;22.30;52.50;;;;;;5051601;28;20969;-71
2024/01/28 09:01:16;;;;;;;4.30;4.00;;;22.30;52.40;;;;;;5045424;28;20457;-71
2024/01/28 09:03:46;;;;;;;3.60;3.40;;;22.30;52.30;;;;;;5047024;28;20841;-74
2024/01/28 09:06:14;;;;;;;3.87;3.60;;;22.40;52.30;;;;;;5056503;28;20450;-74
2024/01/28 09:08:43;;;;;;;3.90;3.63;;;22.30;52.20;;;;;;5044088;28;20468;-70
2024/01/28 09:11:11;;;;;;;4.23;3.90;;;22.30;52.20;;;;;;5050985;28;20462;-71
2024/01/28 09:13:39;;;;;;;3.87;3.67;;;22.30;52.20;;;;;;5040550;28;20478;-72
2024/01/28 09:16:08;;;;;;;4.00;3.70;;;22.30;52.20;;;;;;5039413;28;20955;-74
2024/01/28 09:18:36;;;;;;;4.50;4.10;;;22.30;52.20;;;;;;5044254;28;20447;-72
2024/01/28 09:21:06;;;;;;;3.93;3.63;;;22.30;52.30;;;;;;5043834;28;20547;-73
2024/01/28 09:23:34;;;;;;;5.13;4.00;;;22.20;52.30;;;;;;5041755;28;20852;-72
2024/01/28 09:26:03;;;;;;;4.73;4.23;;;22.20;52.30;;;;;;5040912;28;20467;-70
2024/01/28 09:28:31;;;;;;;4.00;3.70;;;22.20;52.40;;;;;;5043884;28;20466;-71
2024/01/28 09:30:59;;;;;;;4.10;3.80;;;22.20;52.40;;;;;;5045331;28;20466;-70
2024/01/28 09:33:28;;;;;;;4.27;3.97;;;22.20;52.40;;;;;;5035794;28;20483;-70
2024/01/28 09:35:56;;;;;;;4.20;3.37;;;22.10;52.40;;;;;;5033401;28;20548;-71
2024/01/28 09:38:26;;;;;;;4.00;3.70;;;22.10;52.50;;;;;;5048237;28;20460;-71
2024/01/28 09:40:54;;;;;;;3.87;3.57;;;22.10;52.50;;;;;;5040013;28;20454;-71
2024/01/28 09:43:29;;;;;;;4.10;3.77;;;22.10;52.50;;;;;;5030442;28;20454;-71
2024/01/28 09:45:58;;;;;;;3.80;3.40;;;22.20;52.50;;;;;;5040177;28;20487;-72
2024/01/28 09:48:27;;;;;;;3.80;3.50;;;22.20;52.50;;;;;;5050073;28;20902;-71
2024/01/28 09:50:56;;;;;;;4.57;3.40;;;22.20;52.50;;;;;;5035668;28;20459;-71
2024/01/28 09:53:25;;;;;;;4.00;3.70;;;22.20;52.40;;;;;;5037553;28;20829;-72
2024/01/28 09:55:54;;;;;;;4.40;4.10;;;22.30;52.40;;;;;;5036912;28;20974;-71
2024/01/28 09:58:23;;;;;;;5.20;4.03;;;22.30;52.30;;;;;;5056898;28;20833;-71
2024/01/28 10:00:51;;;;;;;5.07;4.67;;;22.30;52.30;;;;;;5037455;28;20612;-70
2024/01/28 10:03:21;;;;;;;5.40;4.63;;;22.30;52.20;;;;;;5034607;28;20878;-70
2024/01/28 10:05:49;;;;;;;3.90;3.57;;;22.40;52.10;;;;;;5039351;28;20468;-70
2024/01/28 10:08:19;;;;;;;3.93;3.63;;;22.40;52.10;;;;;;5044481;28;20811;-71
2024/01/28 10:10:49;;;;;;;3.70;3.50;;;22.40;52.10;;;;;;5039720;28;20459;-72
2024/01/28 10:13:17;;;;;;;3.93;3.70;;;22.40;52.00;;;;;;5047083;28;20481;-70
2024/01/28 10:15:54;;;;;;;4.30;3.90;;;22.40;52.00;;;;;;5040495;28;20467;-70
2024/01/28 10:18:23;;;;;;;4.17;3.87;;;22.40;52.00;;;;;;5036936;28;20453;-70
2024/01/28 10:20:52;;;;;;;3.77;3.47;;;22.40;52.00;;;;;;5038385;28;20552;-78
2024/01/28 10:23:21;;;;;;;4.00;3.70;;;22.30;52.00;;;;;;5041325;28;20501;-70
2024/01/28 10:25:50;;;;;;;4.50;3.90;;;22.30;52.10;;;;;;5041985;28;20489;-70
2024/01/28 10:28:19;;;;;;;4.70;4.20;;;22.30;52.10;;;;;;5042426;28;21001;-72
2024/01/28 10:30:49;;;;;;;4.20;3.90;;;22.30;52.10;;;;;;5034035;28;20460;-72
2024/01/28 10:33:18;;;;;;;3.97;3.67;;;22.20;52.10;;;;;;5034268;28;20550;-72
2024/01/28 10:35:47;;;;;;;4.57;4.27;;;22.20;52.20;;;;;;5044384;28;20461;-70
2024/01/28 10:38:20;;;;;;;4.03;3.73;;;22.20;52.20;;;;;;5040657;28;20462;-73
2024/01/28 10:40:52;;;;;;;4.43;4.07;;;22.20;52.20;;;;;;5041367;28;20465;-70
2024/01/28 10:43:26;;;;;;;4.40;4.00;;;22.20;52.20;;;;;;5036600;28;20462;-71
2024/01/28 10:45:57;;;;;;;4.20;3.90;;;22.20;52.20;;;;;;5037719;28;20459;-70
2024/01/28 10:48:25;;;;;;;4.30;4.00;;;22.20;52.30;;;;;;5040697;28;20803;-70
2024/01/28 10:50:55;;;;;;;4.30;3.80;;;22.20;52.30;;;;;;5037669;28;20569;-71
2024/01/28 10:53:26;;;;;;;4.77;4.03;;;22.20;52.30;;;;;;5035171;28;20458;-71
2024/01/28 10:55:56;;;;;;;4.23;3.93;;;22.20;52.30;;;;;;5037402;28;20467;-72
2024/01/28 10:58:24;;;;;;;4.53;4.23;;;22.20;52.20;;;;;;5040491;28;20462;-70
2024/01/28 11:00:53;;;;;;;4.50;4.20;;;22.20;52.20;;;;;;5037813;28;20543;-70
2024/01/28 11:03:22;;;;;;;3.60;3.40;;;22.30;52.20;;;;;;5036209;28;20584;-72
2024/01/28 11:05:51;;;;;;;4.83;4.47;;;22.30;52.20;;;;;;5036340;28;20455;-71
2024/01/28 11:08:20;;;;;;;3.67;3.37;;;22.30;52.20;;;;;;5033167;28;20564;-70
2024/01/28 11:10:49;;;;;;;4.13;3.83;;;22.30;52.10;;;;;;5033911;28;20957;-73
2024/01/28 11:13:18;;;;;;;4.10;3.80;;;22.30;52.10;;;;;;5040767;28;20459;-71
2024/01/28 11:15:47;;;;;;;4.33;3.93;;;22.30;52.00;;;;;;5040255;28;20470;-70
2024/01/28 11:18:16;;;;;;;4.40;4.10;;;22.40;52.00;;;;;;5037965;28;20472;-72
2024/01/28 11:20:45;;;;;;;3.77;3.47;;;22.40;52.00;;;;;;5043651;28;20493;-74
2024/01/28 11:23:17;;;;;;;4.03;3.63;;;22.40;51.90;;;;;;5042866;28;20642;-72
2024/01/28 11:25:46;;;;;;;4.63;4.23;;;22.40;51.90;;;;;;5039819;28;20459;-72
2024/01/28 11:28:16;;;;;;;3.70;3.40;;;22.40;51.90;;;;;;5037589;28;20461;-71
2024/01/28 11:30:52;;;;;;;4.30;4.00;;;22.40;51.90;;;;;;5037573;28;20552;-73
2024/01/28 11:33:20;;;;;;;4.57;4.17;;;22.30;51.90;;;;;;5034668;28;20582;-73
2024/01/28 11:35:49;;;;;;;3.90;3.60;;;22.30;51.90;;;;;;5032611;28;20512;-71
2024/01/28 11:38:21;;;;;;;4.23;3.93;;;22.30;52.00;;;;;;5039985;28;20516;-72
2024/01/28 11:40:56;;;;;;;3.87;3.57;;;22.30;52.00;;;;;;5042193;28;20554;-73
2024/01/28 11:43:24;;;;;;;3.87;3.57;;;22.20;52.00;;;;;;5038118;28;21050;-71
2024/01/28 11:45:56;;;;;;;4.17;3.87;;;22.20;52.10;;;;;;5042037;28;20554;-71
2024/01/28 11:48:25;;;;;;;4.13;3.83;;;22.20;52.10;;;;;;5038679;28;20520;-74
2024/01/28 11:50:53;;;;;;;4.63;4.23;;;22.20;52.10;;;;;;5042156;28;20458;-70
2024/01/28 11:53:22;;;;;;;4.27;3.97;;;22.20;52.20;;;;;;5040306;28;21027;-69
2024/01/28 11:55:50;;;;;;;3.80;3.50;;;22.20;52.20;;;;;;5044026;28;21285;-70
2024/01/28 11:58:19;;;;;;;4.30;4.00;;;22.20;52.30;;;;;;5042209;28;20470;-70
2024/01/28 12:00:47;;;;;;;4.10;3.80;;;22.20;52.30;;;;;;5045227;28;20469;-70
2024/01/28 12:03:18;;;;;;;3.77;3.50;;;22.20;52.40;;;;;;5039953;28;20459;-71
2024/01/28 12:05:46;;;;;;;3.87;3.67;;;22.20;52.40;;;;;;5050738;28;20454;-69
2024/01/28 12:08:25;;;;;;;4.10;3.77;;;22.20;52.40;;;;;;5043864;28;20973;-69
2024/01/28 12:10:58;;;;;;;6.83;3.97;;;22.20;52.40;;;;;;5063997;28;20452;-70
2024/01/28 12:13:27;;;;;;;4.80;4.13;;;22.30;52.40;;;;;;5058033;28;20455;-69
2024/01/28 12:15:57;;;;;;;4.00;3.73;;;22.30;52.30;;;;;;5046830;28;20743;-69
2024/01/28 12:18:32;;;;;;;4.37;4.07;;;22.40;52.30;;;;;;5057478;28;20800;-69
2024/01/28 12:21:01;;;;;;;4.13;3.83;;;22.40;52.20;;;;;;5047625;28;20496;-69
2024/01/28 12:23:31;;;;;;;4.50;4.20;;;22.40;52.20;;;;;;5036987;28;20949;-71
2024/01/28 12:26:00;;;;;;;4.03;3.73;;;22.50;52.10;;;;;;5036401;28;20466;-70
2024/01/28 12:28:28;;;;;;;4.70;4.30;;;22.50;52.00;;;;;;5038500;28;20464;-73
2024/01/28 12:30:56;;;;;;;3.87;3.57;;;22.50;52.00;;;;;;5040869;28;20450;-69
2024/01/28 12:33:25;;;;;;;4.53;4.13;;;22.50;52.00;;;;;;5039816;28;20478;-69
2024/01/28 12:35:55;;;;;;;4.27;3.87;;;22.50;52.00;;;;;;5037450;28;20837;-70
2024/01/28 12:38:24;;;;;;;3.90;3.60;;;22.40;52.00;;;;;;5043523;28;20874;-69
2024/01/28 12:40:52;;;;;;;4.43;4.03;;;22.40;52.00;;;;;;5039922;28;21987;-69
2024/01/28 12:43:20;;;;;;;4.37;4.07;;;22.40;52.00;;;;;;5040507;28;20452;-70
2024/01/28 12:45:49;;;;;;;4.40;4.10;;;22.40;52.00;;;;;;5040568;28;20451;-68
2024/01/28 12:48:17;;;;;;;4.17;3.87;;;22.40;52.00;;;;;;5044143;28;20475;-69
2024/01/28 12:50:46;;;;;;;5.10;4.70;;;22.40;52.10;;;;;;5056680;28;20508;-69
2024/01/28 12:53:16;;;;;;;3.53;3.30;;;22.30;52.10;;;;;;5038020;28;20468;-69
2024/01/28 12:55:45;;;;;;;4.03;3.73;;;22.30;52.10;;;;;;5044806;28;20492;-68